Terminal Aerodrome Forecast
Issued by NWS

Home | Current Version | Previous Version | Graphics & Text | Print | Product List | Glossary On
Versions: 1 2 3 4 5 6 7 8 9 10 11 12
341
FTUS45 KGGW 071128
TAFSDY
TAF
KSDY 071128Z 0712/0812 30030G40KT P6SM VCSH OVC040
     FM071400 31026G37KT P6SM VCSH BKN025
     FM071700 31026G37KT P6SM BKN040
     FM071800 32028G40KT P6SM SCT050
     FM080000 32019G26KT P6SM SCT090
     FM080600 31013KT P6SM SCT250
      AMD LTD TO CLD VIS AND WIND=

USA.gov is the U.S. government's official web portal to all federal, state and local government web resources and services.